createdAt,value
2023-04-16T00:01:27.378Z,15.55
2023-04-16T00:03:55.051Z,13.35
2023-04-16T00:06:23.144Z,14.38
2023-04-16T00:08:51.663Z,16.80
2023-04-16T00:11:18.891Z,12.23
2023-04-16T00:13:48.350Z,14.48
2023-04-16T00:16:16.120Z,11.25
2023-04-16T00:18:43.388Z,17.02
2023-04-16T00:21:10.725Z,14.73
2023-04-16T00:23:38.419Z,14.15
2023-04-16T00:26:05.989Z,11.15
2023-04-16T00:28:33.214Z,14.93
2023-04-16T00:31:01.420Z,12.10
2023-04-16T00:33:30.187Z,11.82
2023-04-16T00:35:57.602Z,11.02
2023-04-16T00:38:24.920Z,13.50
2023-04-16T00:40:52.171Z,13.20
2023-04-16T00:43:23.065Z,9.85
2023-04-16T00:45:50.801Z,9.52
2023-04-16T00:48:20.412Z,11.02
2023-04-16T00:50:47.718Z,10.35
2023-04-16T00:53:15.002Z,10.30
2023-04-16T00:55:42.280Z,9.98
2023-04-16T00:58:09.467Z,13.35
2023-04-16T01:00:36.730Z,8.95
2023-04-16T01:03:04.558Z,9.38
2023-04-16T01:05:32.423Z,10.25
2023-04-16T01:08:01.149Z,11.88
2023-04-16T01:10:28.541Z,11.65
2023-04-16T01:12:55.840Z,11.70
2023-04-16T01:15:24.673Z,15.00
2023-04-16T01:17:51.950Z,11.38
2023-04-16T01:20:19.240Z,13.32
2023-04-16T01:22:46.525Z,7.70
2023-04-16T01:25:14.948Z,7.82
2023-04-16T01:27:42.226Z,15.00
2023-04-16T01:30:09.941Z,8.98
2023-04-16T01:32:38.955Z,8.57
2023-04-16T01:35:06.493Z,8.07
2023-04-16T01:37:33.850Z,7.97
2023-04-16T01:40:01.344Z,8.70
2023-04-16T01:42:28.684Z,9.80
2023-04-16T01:44:55.919Z,8.93
2023-04-16T01:47:23.180Z,6.72
2023-04-16T01:49:51.533Z,9.50
2023-04-16T01:52:18.875Z,8.55
2023-04-16T01:54:46.200Z,10.68
2023-04-16T01:57:13.624Z,9.18
2023-04-16T01:59:41.107Z,12.13
2023-04-16T02:02:14.625Z,11.18
2023-04-16T02:04:43.514Z,11.02
2023-04-16T02:07:11.745Z,13.18
2023-04-16T02:09:40.050Z,9.57
2023-04-16T02:12:07.528Z,11.27
2023-04-16T02:14:35.186Z,9.25
2023-04-16T02:17:02.765Z,15.25
2023-04-16T02:19:30.054Z,11.60
2023-04-16T02:21:57.308Z,12.43
2023-04-16T02:24:24.586Z,12.98
2023-04-16T02:26:51.824Z,21.30
2023-04-16T02:29:19.626Z,20.27
2023-04-16T02:31:47.127Z,25.20
2023-04-16T02:34:14.570Z,20.95
2023-04-16T02:36:42.001Z,24.98
2023-04-16T02:39:09.551Z,25.10
2023-04-16T02:41:38.567Z,17.17
2023-04-16T02:44:06.119Z,27.73
2023-04-16T02:46:33.353Z,21.35
2023-04-16T02:49:00.666Z,39.67
2023-04-16T02:51:27.982Z,22.45
2023-04-16T02:53:55.329Z,25.08
2023-04-16T02:56:22.575Z,17.83
2023-04-16T02:58:50.356Z,25.98
2023-04-16T03:01:18.167Z,18.15
2023-04-16T03:03:45.605Z,28.42
2023-04-16T03:06:12.922Z,24.02
2023-04-16T03:08:41.615Z,26.85
2023-04-16T03:11:08.823Z,17.13
2023-04-16T03:13:36.330Z,18.55
2023-04-16T03:16:03.715Z,21.13
2023-04-16T03:18:31.278Z,10.50
2023-04-16T03:20:58.484Z,13.15
2023-04-16T03:23:25.794Z,10.82
2023-04-16T03:25:53.015Z,11.50
2023-04-16T03:28:20.462Z,8.60
2023-04-16T03:30:52.734Z,16.92
2023-04-16T03:33:20.724Z,10.75
2023-04-16T03:35:55.415Z,11.85
2023-04-16T03:38:23.515Z,13.40
2023-04-16T03:40:50.736Z,9.60
2023-04-16T03:43:17.979Z,11.35
2023-04-16T03:45:46.237Z,9.63
2023-04-16T03:48:13.682Z,9.75
2023-04-16T03:50:41.047Z,13.13
2023-04-16T03:53:08.506Z,13.20
2023-04-16T03:55:36.131Z,10.48
2023-04-16T03:58:04.906Z,12.25
2023-04-16T04:00:32.185Z,10.75
2023-04-16T04:03:00.056Z,10.57
2023-04-16T04:05:27.467Z,9.07
2023-04-16T04:07:55.229Z,9.43
2023-04-16T04:10:22.505Z,15.70
2023-04-16T04:12:49.802Z,10.65
2023-04-16T04:15:17.232Z,8.35
2023-04-16T04:17:44.694Z,9.13
2023-04-16T04:20:12.373Z,11.98
2023-04-16T04:22:40.117Z,9.70
2023-04-16T04:25:08.757Z,8.90
2023-04-16T04:27:36.275Z,9.45
2023-04-16T04:30:04.923Z,10.00
2023-04-16T04:32:32.355Z,8.65
2023-04-16T04:35:03.144Z,8.10
2023-04-16T04:37:30.559Z,8.48
2023-04-16T04:39:58.162Z,12.32
2023-04-16T04:42:25.536Z,6.43
2023-04-16T04:44:52.795Z,8.68
2023-04-16T04:47:20.028Z,5.95
2023-04-16T04:49:47.359Z,7.55
2023-04-16T04:52:14.639Z,8.25
2023-04-16T04:54:41.918Z,7.97
2023-04-16T04:57:09.205Z,7.47
2023-04-16T04:59:36.784Z,8.05
2023-04-16T05:02:04.752Z,10.88
2023-04-16T05:04:32.141Z,9.38
2023-04-16T05:06:59.410Z,9.05
2023-04-16T05:09:26.811Z,5.88
2023-04-16T05:11:54.084Z,5.82
2023-04-16T05:14:21.323Z,6.05
2023-04-16T05:16:49.777Z,6.88
2023-04-16T05:19:17.008Z,5.88
2023-04-16T05:21:44.239Z,12.23
2023-04-16T05:24:13.076Z,7.85
2023-04-16T05:26:42.078Z,6.43
2023-04-16T05:29:09.469Z,6.35
2023-04-16T05:31:37.032Z,6.55
2023-04-16T05:34:04.242Z,9.13
2023-04-16T05:36:34.060Z,6.22
2023-04-16T05:39:01.303Z,9.68
2023-04-16T05:41:28.557Z,9.98
2023-04-16T05:43:56.293Z,6.60
2023-04-16T05:46:23.701Z,11.30
2023-04-16T05:48:50.918Z,9.10
2023-04-16T05:51:18.258Z,6.65
2023-04-16T05:53:45.720Z,8.27
2023-04-16T05:56:12.962Z,5.70
2023-04-16T05:58:40.324Z,6.35
2023-04-16T06:01:07.617Z,5.82
2023-04-16T06:03:35.267Z,7.15
2023-04-16T06:06:02.752Z,6.22
2023-04-16T06:08:30.567Z,9.02
2023-04-16T06:10:57.877Z,9.25
2023-04-16T06:13:25.155Z,6.10
2023-04-16T06:15:52.561Z,5.30
2023-04-16T06:18:21.684Z,7.05
2023-04-16T06:20:48.953Z,7.63
2023-04-16T06:23:16.303Z,26.58
2023-04-16T06:25:43.497Z,22.90
2023-04-16T06:28:10.822Z,13.10
2023-04-16T06:30:38.072Z,18.65
2023-04-16T06:33:05.452Z,22.60
2023-04-16T06:35:33.030Z,9.38
2023-04-16T06:38:00.344Z,12.98
2023-04-16T06:40:27.644Z,10.75
2023-04-16T06:42:55.714Z,8.07
2023-04-16T06:45:22.882Z,14.27
2023-04-16T06:47:51.169Z,11.52
2023-04-16T06:50:18.477Z,10.43
2023-04-16T06:52:46.408Z,8.25
2023-04-16T06:55:13.787Z,16.02
2023-04-16T06:57:41.114Z,11.10
2023-04-16T07:00:09.252Z,10.00
2023-04-16T07:02:37.172Z,11.45
2023-04-16T07:05:04.774Z,7.57
2023-04-16T07:07:32.736Z,10.45
2023-04-16T07:10:00.370Z,13.50
2023-04-16T07:12:27.625Z,13.02
2023-04-16T07:14:55.119Z,19.15
2023-04-16T07:17:22.486Z,5.70
2023-04-16T07:19:50.350Z,9.23
2023-04-16T07:22:17.617Z,14.00
2023-04-16T07:24:44.987Z,11.68
2023-04-16T07:27:13.099Z,9.90
2023-04-16T07:29:40.999Z,8.65
2023-04-16T07:32:08.403Z,11.68
2023-04-16T07:34:35.836Z,10.43
2023-04-16T07:37:03.080Z,7.85
2023-04-16T07:39:30.515Z,11.13
2023-04-16T07:41:57.767Z,8.82
2023-04-16T07:44:24.951Z,9.80
2023-04-16T07:46:52.308Z,5.60
2023-04-16T07:49:20.035Z,4.30
2023-04-16T07:51:47.402Z,4.15
2023-04-16T07:54:14.618Z,5.45
2023-04-16T07:56:41.913Z,8.77
2023-04-16T07:59:22.061Z,8.50
2023-04-16T08:01:52.124Z,5.60
2023-04-16T08:04:24.585Z,4.47
2023-04-16T08:06:53.883Z,10.85
2023-04-16T08:09:22.804Z,6.90
2023-04-16T08:11:50.242Z,8.90
2023-04-16T08:14:17.771Z,4.53
2023-04-16T08:16:45.073Z,6.53
2023-04-16T08:19:12.557Z,5.50
2023-04-16T08:21:41.090Z,4.07
2023-04-16T08:24:08.847Z,5.22
2023-04-16T08:26:36.088Z,7.43
2023-04-16T08:29:03.305Z,4.38
2023-04-16T08:31:30.671Z,10.57
2023-04-16T08:33:58.008Z,7.55
2023-04-16T08:36:25.651Z,3.35
2023-04-16T08:38:53.371Z,7.20
2023-04-16T08:41:20.585Z,9.85
2023-04-16T08:43:47.820Z,6.20
2023-04-16T08:46:15.720Z,5.13
2023-04-16T08:48:43.909Z,4.35
2023-04-16T08:51:11.300Z,13.15
2023-04-16T08:54:00.514Z,4.25
2023-04-16T08:56:27.819Z,5.80
2023-04-16T08:58:55.101Z,5.40
2023-04-16T09:01:22.444Z,7.63
2023-04-16T09:03:49.929Z,6.95
2023-04-16T09:06:17.504Z,5.53
2023-04-16T09:08:45.861Z,8.30
2023-04-16T09:11:19.224Z,4.53
2023-04-16T09:13:47.017Z,5.65
2023-04-16T09:16:14.571Z,5.35
2023-04-16T09:18:41.926Z,5.90
2023-04-16T09:21:12.421Z,5.40
2023-04-16T09:23:40.347Z,4.40
2023-04-16T09:26:07.589Z,7.35
2023-04-16T09:28:48.234Z,8.32
2023-04-16T09:31:19.196Z,5.70
2023-04-16T09:34:06.144Z,9.95
2023-04-16T09:36:33.681Z,8.80
2023-04-16T09:39:01.194Z,7.95
2023-04-16T09:41:32.994Z,8.15
2023-04-16T09:44:07.100Z,10.43
2023-04-16T09:46:42.699Z,6.07
2023-04-16T09:49:16.775Z,7.15
2023-04-16T09:51:45.995Z,5.03
2023-04-16T09:54:13.600Z,3.63
2023-04-16T09:56:43.344Z,6.88
2023-04-16T09:59:20.454Z,8.00
2023-04-16T10:01:49.660Z,7.40
2023-04-16T10:04:17.372Z,6.35
2023-04-16T10:06:46.920Z,6.05
2023-04-16T10:09:14.125Z,5.35
2023-04-16T10:11:41.391Z,7.38
2023-04-16T10:14:09.383Z,7.57
2023-04-16T10:16:36.769Z,8.50
2023-04-16T10:19:04.007Z,6.55
2023-04-16T10:21:34.281Z,5.13
2023-04-16T10:24:01.926Z,15.27
2023-04-16T10:26:30.648Z,8.43
2023-04-16T10:28:58.689Z,12.00
2023-04-16T10:31:25.978Z,5.32
2023-04-16T10:33:53.306Z,5.68
2023-04-16T10:36:24.194Z,12.48
2023-04-16T10:38:52.516Z,11.95
2023-04-16T10:41:20.127Z,9.73
2023-04-16T10:43:48.361Z,8.88
2023-04-16T10:46:24.702Z,14.95
2023-04-16T10:48:56.101Z,11.77
2023-04-16T10:54:08.674Z,6.18
2023-04-16T10:56:36.406Z,6.32
2023-04-16T10:59:07.417Z,4.18
2023-04-16T11:01:37.520Z,5.65
2023-04-16T11:04:20.166Z,5.47
2023-04-16T11:07:13.871Z,4.95
2023-04-16T11:09:49.976Z,6.75
2023-04-16T11:12:18.630Z,5.97
2023-04-16T11:14:52.610Z,6.78
2023-04-16T11:17:20.799Z,9.30
2023-04-16T11:19:48.239Z,5.10
2023-04-16T11:22:17.415Z,4.47
2023-04-16T11:24:46.011Z,5.00
2023-04-16T11:27:14.576Z,2.85
2023-04-16T11:29:42.101Z,6.43
2023-04-16T11:32:09.377Z,3.97
2023-04-16T11:34:46.100Z,3.65
2023-04-16T11:37:13.397Z,4.00
2023-04-16T11:39:51.243Z,6.82
2023-04-16T11:42:22.902Z,9.15
2023-04-16T11:44:54.490Z,11.70
2023-04-16T11:47:24.000Z,6.80
2023-04-16T11:49:51.519Z,4.25
2023-04-16T11:52:30.336Z,5.93
2023-04-16T11:54:58.802Z,6.15
2023-04-16T11:57:29.758Z,10.65
2023-04-16T12:00:02.531Z,5.30
2023-04-16T12:02:41.043Z,9.00
2023-04-16T12:05:28.733Z,7.22
2023-04-16T12:07:56.376Z,5.93
2023-04-16T12:10:23.898Z,9.68
2023-04-16T12:12:52.284Z,4.88
2023-04-16T12:15:19.504Z,6.68
2023-04-16T12:17:47.325Z,7.40
2023-04-16T12:20:15.504Z,5.38
2023-04-16T12:22:47.448Z,6.22
2023-04-16T12:25:16.554Z,11.07
2023-04-16T12:27:55.974Z,5.45
2023-04-16T12:30:24.276Z,3.90
2023-04-16T12:32:53.211Z,5.85
2023-04-16T12:35:33.607Z,9.23
2023-04-16T12:38:01.528Z,11.03
2023-04-16T12:40:28.897Z,6.88
2023-04-16T12:42:56.172Z,9.18
2023-04-16T12:45:24.309Z,6.25
2023-04-16T12:47:51.640Z,6.28
2023-04-16T12:50:18.944Z,4.13
2023-04-16T12:52:46.460Z,7.05
2023-04-16T12:55:14.231Z,6.13
2023-04-16T12:57:41.469Z,4.32
2023-04-16T13:00:10.775Z,4.75
2023-04-16T13:02:38.419Z,2.90
2023-04-16T13:05:06.213Z,5.03
2023-04-16T13:07:34.103Z,6.88
2023-04-16T13:10:01.325Z,4.15
2023-04-16T13:12:28.638Z,5.40
2023-04-16T13:14:56.076Z,3.25
2023-04-16T13:17:23.352Z,7.22
2023-04-16T13:19:50.685Z,9.48
2023-04-16T13:22:17.944Z,5.78
2023-04-16T13:24:46.051Z,6.13
2023-04-16T13:27:15.200Z,4.05
2023-04-16T13:29:42.621Z,5.25
2023-04-16T13:32:09.933Z,9.95
2023-04-16T13:34:37.258Z,11.75
2023-04-16T13:37:04.649Z,12.02
2023-04-16T13:39:31.884Z,8.50
2023-04-16T13:41:59.259Z,6.13
2023-04-16T13:44:26.569Z,8.90
2023-04-16T13:46:53.911Z,5.40
2023-04-16T13:49:21.470Z,6.55
2023-04-16T13:51:48.722Z,4.57
2023-04-16T13:54:16.041Z,4.70
2023-04-16T13:56:43.367Z,5.22
2023-04-16T13:59:10.994Z,3.47
2023-04-16T14:01:39.324Z,2.90
2023-04-16T14:04:07.359Z,7.18
2023-04-16T14:06:35.582Z,9.82
2023-04-16T14:09:04.166Z,7.45
2023-04-16T14:11:31.668Z,10.52
2023-04-16T14:13:58.953Z,9.77
2023-04-16T14:16:27.360Z,5.63
2023-04-16T14:18:54.732Z,10.98
2023-04-16T14:21:22.009Z,13.32
2023-04-16T14:23:49.400Z,8.73
2023-04-16T14:26:16.665Z,9.80
2023-04-16T14:28:44.250Z,11.20
2023-04-16T14:31:11.470Z,11.48
2023-04-16T14:33:38.846Z,9.18
2023-04-16T14:36:06.552Z,15.27
2023-04-16T14:38:33.959Z,11.90
2023-04-16T14:41:01.336Z,10.25
2023-04-16T14:43:28.749Z,10.05
2023-04-16T14:45:57.143Z,9.85
2023-04-16T14:48:24.978Z,8.88
2023-04-16T14:50:52.204Z,12.65
2023-04-16T14:53:19.799Z,6.68
2023-04-16T14:55:47.624Z,5.03
2023-04-16T14:58:14.979Z,7.53
2023-04-16T15:00:42.237Z,8.50
2023-04-16T15:03:09.666Z,6.88
2023-04-16T15:05:37.373Z,9.77
2023-04-16T15:08:05.495Z,7.40
2023-04-16T15:10:33.498Z,8.02
2023-04-16T15:13:01.009Z,4.95
2023-04-16T15:15:28.335Z,7.50
2023-04-16T15:17:57.026Z,10.52
2023-04-16T15:20:24.523Z,8.35
2023-04-16T15:22:51.964Z,11.02
2023-04-16T15:25:19.260Z,12.07
2023-04-16T15:27:46.926Z,6.15
2023-04-16T15:30:14.485Z,6.20
2023-04-16T15:32:41.780Z,15.63
2023-04-16T15:35:14.436Z,12.63
2023-04-16T15:37:41.803Z,5.82
2023-04-16T15:40:09.234Z,5.40
2023-04-16T15:42:36.737Z,7.20
2023-04-16T15:45:04.316Z,5.18
2023-04-16T15:47:31.635Z,14.13
2023-04-16T15:49:58.914Z,16.50
2023-04-16T15:52:26.319Z,10.50
2023-04-16T15:54:54.600Z,5.55
2023-04-16T15:57:21.801Z,10.98
2023-04-16T16:00:05.456Z,14.55
2023-04-16T16:02:34.851Z,8.57
2023-04-16T16:05:03.346Z,10.77
2023-04-16T16:07:30.786Z,9.20
2023-04-16T16:09:58.406Z,8.27
2023-04-16T16:12:25.728Z,10.77
2023-04-16T16:14:53.247Z,8.48
2023-04-16T16:17:20.761Z,12.75
2023-04-16T16:19:48.014Z,8.50
2023-04-16T16:22:20.381Z,10.52
2023-04-16T16:24:53.417Z,8.13
2023-04-16T16:27:20.989Z,18.60
2023-04-16T16:29:48.195Z,10.05
2023-04-16T16:32:16.471Z,13.88
2023-04-16T16:34:43.709Z,7.85
2023-04-16T16:37:10.952Z,12.30
2023-04-16T16:39:39.885Z,13.85
2023-04-16T16:42:09.119Z,14.68
2023-04-16T16:44:36.788Z,8.80
2023-04-16T16:47:04.131Z,6.70
2023-04-16T16:49:31.543Z,11.80
2023-04-16T16:51:58.797Z,6.75
2023-04-16T16:54:26.170Z,5.47
2023-04-16T16:56:53.428Z,5.35
2023-04-16T16:59:20.780Z,6.88
2023-04-16T17:01:47.997Z,3.38
2023-04-16T17:06:42.889Z,3.90
2023-04-16T17:09:11.334Z,8.00
2023-04-16T17:11:38.761Z,5.15
2023-04-16T17:14:06.040Z,7.32
2023-04-16T17:16:33.735Z,4.82
2023-04-16T17:19:01.350Z,3.72
2023-04-16T17:21:28.582Z,6.72
2023-04-16T17:23:58.092Z,7.57
2023-04-16T17:26:25.731Z,5.72
2023-04-16T17:28:54.146Z,6.53
2023-04-16T17:31:22.949Z,10.23
2023-04-16T17:33:50.697Z,4.32
2023-04-16T17:36:19.759Z,4.55
2023-04-16T17:38:46.981Z,13.43
2023-04-16T17:41:14.246Z,5.53
2023-04-16T17:43:41.621Z,4.53
2023-04-16T17:46:11.243Z,12.63
2023-04-16T17:48:38.982Z,7.47
2023-04-16T17:51:12.790Z,3.70
2023-04-16T17:53:39.992Z,5.78
2023-04-16T17:56:07.691Z,8.15
2023-04-16T17:58:36.372Z,5.97
2023-04-16T18:01:03.894Z,6.15
2023-04-16T18:03:32.316Z,8.45
2023-04-16T18:05:59.654Z,6.25
2023-04-16T18:08:27.676Z,6.97
2023-04-16T18:10:55.643Z,5.60
2023-04-16T18:13:24.213Z,6.88
2023-04-16T18:15:51.802Z,7.25
2023-04-16T18:18:20.594Z,5.80
2023-04-16T18:20:48.299Z,5.63
2023-04-16T18:23:15.743Z,5.85
2023-04-16T18:25:43.143Z,3.53
2023-04-16T18:28:13.653Z,4.78
2023-04-16T18:30:41.458Z,7.00
2023-04-16T18:33:34.288Z,5.72
2023-04-16T18:35:55.957Z,5.68
2023-04-16T18:38:24.290Z,6.03
2023-04-16T18:40:51.557Z,5.43
2023-04-16T18:43:19.000Z,7.55
2023-04-16T18:45:46.199Z,6.25
2023-04-16T18:48:13.396Z,11.98
2023-04-16T18:50:40.625Z,8.88
2023-04-16T18:53:07.930Z,7.22
2023-04-16T18:55:35.311Z,7.63
2023-04-16T18:58:02.628Z,17.35
2023-04-16T19:00:30.018Z,10.55
2023-04-16T19:02:57.392Z,8.52
2023-04-16T19:05:24.745Z,11.35
2023-04-16T19:07:52.611Z,10.25
2023-04-16T19:10:19.820Z,15.27
2023-04-16T19:12:47.065Z,12.30
2023-04-16T19:15:14.950Z,21.00
2023-04-16T19:17:42.910Z,15.85
2023-04-16T19:20:11.470Z,12.25
2023-04-16T19:22:39.392Z,12.50
2023-04-16T19:25:07.250Z,21.23
2023-04-16T19:27:34.907Z,16.65
2023-04-16T19:30:03.171Z,12.85
2023-04-16T19:32:31.046Z,18.70
2023-04-16T19:34:58.321Z,17.10
2023-04-16T19:37:25.763Z,20.73
2023-04-16T19:39:54.749Z,23.92
2023-04-16T19:42:21.992Z,31.35
2023-04-16T19:44:49.267Z,19.98
2023-04-16T19:47:16.508Z,18.42
2023-04-16T19:49:43.862Z,21.80
2023-04-16T19:52:11.238Z,23.15
2023-04-16T19:54:38.996Z,19.75
2023-04-16T19:57:06.438Z,18.75
2023-04-16T19:59:34.157Z,17.08
2023-04-16T20:02:01.676Z,20.95
2023-04-16T20:04:29.381Z,16.42
2023-04-16T20:06:56.985Z,8.18
2023-04-16T20:09:25.343Z,9.10
2023-04-16T20:11:52.714Z,7.22
2023-04-16T20:14:19.913Z,7.75
2023-04-16T20:16:47.408Z,7.75
2023-04-16T20:19:18.930Z,9.95
2023-04-16T20:21:46.166Z,8.60
2023-04-16T20:24:15.546Z,6.68
2023-04-16T20:26:43.477Z,8.57
2023-04-16T20:29:11.219Z,9.50
2023-04-16T20:31:38.815Z,5.82
2023-04-16T20:34:06.053Z,7.68
2023-04-16T20:36:33.535Z,4.88
2023-04-16T20:39:02.246Z,12.27
2023-04-16T20:41:30.259Z,13.57
2023-04-16T20:43:57.490Z,18.13
2023-04-16T20:46:24.795Z,14.75
2023-04-16T20:48:52.265Z,15.82
2023-04-16T20:51:19.492Z,21.25
2023-04-16T20:53:46.721Z,15.40
2023-04-16T20:56:15.098Z,15.77
2023-04-16T20:58:43.665Z,18.30
2023-04-16T21:01:11.114Z,19.88
2023-04-16T21:03:38.664Z,18.27
2023-04-16T21:06:06.161Z,10.23
2023-04-16T21:08:33.411Z,23.58
2023-04-16T21:11:01.638Z,19.45
2023-04-16T21:13:29.261Z,19.27
2023-04-16T21:15:56.596Z,22.13
2023-04-16T21:18:24.110Z,8.20
2023-04-16T21:20:51.341Z,9.98
2023-04-16T21:23:18.844Z,7.05
2023-04-16T21:25:46.143Z,11.93
2023-04-16T21:28:13.618Z,3.67
2023-04-16T21:30:41.402Z,4.90
2023-04-16T21:33:08.717Z,3.42
2023-04-16T21:35:36.113Z,4.53
2023-04-16T21:38:03.326Z,3.45
2023-04-16T21:40:30.920Z,4.28
2023-04-16T21:42:58.166Z,4.43
2023-04-16T21:45:25.377Z,2.88
2023-04-16T21:47:52.729Z,2.58
2023-04-16T21:50:20.032Z,4.15
2023-04-16T21:52:47.339Z,8.82
2023-04-16T21:55:14.848Z,4.50
2023-04-16T21:57:42.149Z,4.80
2023-04-16T22:00:13.986Z,3.50
2023-04-16T22:02:42.757Z,6.70
2023-04-16T22:05:11.388Z,3.47
2023-04-16T22:07:39.637Z,4.00
2023-04-16T22:10:08.791Z,7.22
2023-04-16T22:12:39.942Z,3.50
2023-04-16T22:15:08.173Z,3.58
2023-04-16T22:17:36.023Z,3.60
2023-04-16T22:20:08.956Z,9.57
2023-04-16T22:22:36.901Z,5.60
2023-04-16T22:25:04.504Z,4.97
2023-04-16T22:27:31.825Z,2.85
2023-04-16T22:29:59.450Z,5.32
2023-04-16T22:32:27.135Z,6.25
2023-04-16T22:34:54.435Z,4.32
2023-04-16T22:37:21.697Z,3.03
2023-04-16T22:39:49.007Z,7.15
2023-04-16T22:42:16.275Z,5.50
2023-04-16T22:44:43.524Z,3.10
2023-04-16T22:47:10.979Z,4.35
2023-04-16T22:49:38.348Z,2.88
2023-04-16T22:52:06.157Z,3.90
2023-04-16T22:54:34.274Z,9.77
2023-04-16T22:57:01.986Z,5.05
2023-04-16T22:59:29.401Z,5.78
2023-04-16T23:01:56.689Z,4.20
2023-04-16T23:04:24.042Z,5.45
2023-04-16T23:06:51.518Z,4.82
2023-04-16T23:09:20.568Z,3.85
2023-04-16T23:11:47.798Z,2.95
2023-04-16T23:14:16.820Z,3.95
2023-04-16T23:16:44.272Z,5.13
2023-04-16T23:19:14.884Z,7.22
2023-04-16T23:21:42.340Z,4.53
2023-04-16T23:24:09.540Z,3.47
2023-04-16T23:26:36.907Z,5.07
2023-04-16T23:29:04.300Z,3.65
2023-04-16T23:31:31.702Z,5.45
2023-04-16T23:33:58.940Z,4.90
2023-04-16T23:36:26.998Z,3.90
2023-04-16T23:38:54.178Z,10.48
2023-04-16T23:41:23.299Z,5.53
2023-04-16T23:43:50.695Z,4.55
2023-04-16T23:46:18.131Z,4.75
2023-04-16T23:48:45.342Z,3.40
2023-04-16T23:51:12.648Z,5.40
2023-04-16T23:53:40.873Z,8.20
2023-04-16T23:56:10.998Z,8.82
2023-04-16T23:58:38.268Z,8.88
